createdAt,value
2022-10-11T00:01:32.135Z,5.45
2022-10-11T00:06:33.646Z,5.80
2022-10-11T00:11:34.989Z,5.50
2022-10-11T00:16:38.483Z,5.82
2022-10-11T00:21:40.027Z,5.65
2022-10-11T00:26:46.603Z,5.13
2022-10-11T00:31:48.481Z,5.32
2022-10-11T00:36:49.853Z,6.15
2022-10-11T00:41:51.367Z,8.38
2022-10-11T00:47:06.422Z,5.35
2022-10-11T00:52:31.414Z,4.82
2022-10-11T00:57:36.868Z,5.32
2022-10-11T01:02:39.994Z,4.95
2022-10-11T01:07:42.760Z,4.10
2022-10-11T01:13:22.931Z,2.55
2022-10-11T01:18:53.970Z,1.67
2022-10-11T01:24:32.700Z,0.60
2022-10-11T01:29:34.007Z,0.50
2022-10-11T01:34:55.944Z,0.45
2022-10-11T01:40:19.305Z,0.75
2022-10-11T01:45:21.706Z,0.38
2022-10-11T01:50:44.643Z,0.50
2022-10-11T01:56:10.442Z,0.50
2022-10-11T02:01:35.658Z,0.40
2022-10-11T02:06:51.003Z,1.05
2022-10-11T02:11:58.144Z,0.70
2022-10-11T02:17:07.724Z,1.15
2022-10-11T02:22:15.136Z,0.40
2022-10-11T02:32:21.869Z,0.50
2022-10-11T02:37:29.338Z,0.90
2022-10-11T02:42:39.174Z,0.80
2022-10-11T02:47:42.375Z,0.43
2022-10-11T02:52:43.810Z,0.85
2022-10-11T02:57:46.493Z,0.55
2022-10-11T03:02:47.947Z,0.57
2022-10-11T03:07:49.311Z,0.55
2022-10-11T03:12:50.680Z,1.08
2022-10-11T03:17:52.054Z,1.80
2022-10-11T03:22:53.545Z,0.45
2022-10-11T03:27:54.907Z,0.40
2022-10-11T03:32:56.601Z,1.05
2022-10-11T03:37:57.970Z,0.50
2022-10-11T03:42:59.317Z,0.50
2022-10-11T03:48:00.683Z,0.95
2022-10-11T03:53:02.573Z,1.13
2022-10-11T03:58:03.944Z,1.48
2022-10-11T04:03:05.389Z,0.40
2022-10-11T04:08:11.217Z,0.65
2022-10-11T04:13:13.610Z,0.50
2022-10-11T04:18:15.118Z,1.38
2022-10-11T04:23:16.496Z,0.68
2022-10-11T04:28:18.038Z,1.05
2022-10-11T04:33:19.436Z,0.63
2022-10-11T04:38:20.917Z,1.02
2022-10-11T04:43:22.343Z,0.90
2022-10-11T04:48:23.732Z,0.55
2022-10-11T04:53:25.103Z,1.90
2022-10-11T04:58:28.207Z,0.50
2022-10-11T05:03:30.130Z,0.77
2022-10-11T05:08:31.554Z,1.10
2022-10-11T05:13:34.880Z,0.90
2022-10-11T05:18:36.443Z,0.88
2022-10-11T05:23:37.867Z,0.40
2022-10-11T05:28:39.402Z,1.08
2022-10-11T05:33:40.914Z,1.45
2022-10-11T05:38:42.486Z,0.63
2022-10-11T05:43:47.018Z,0.65
2022-10-11T05:48:48.417Z,1.20
2022-10-11T05:53:49.860Z,1.20
2022-10-11T05:58:52.077Z,0.80
2022-10-11T06:03:53.915Z,0.70
2022-10-11T06:08:55.328Z,0.98
2022-10-11T06:14:00.983Z,0.98
2022-10-11T06:19:02.354Z,0.68
2022-10-11T06:24:04.105Z,0.90
2022-10-11T06:29:05.960Z,0.68
2022-10-11T06:34:07.396Z,0.80
2022-10-11T06:39:08.844Z,0.70
2022-10-11T06:44:14.427Z,0.98
2022-10-11T06:49:20.719Z,0.95
2022-10-11T06:54:24.552Z,1.02
2022-10-11T06:59:25.988Z,0.82
2022-10-11T07:04:27.794Z,1.27
2022-10-11T07:09:29.243Z,0.85
2022-10-11T07:14:30.634Z,0.80
2022-10-11T07:19:32.176Z,0.68
2022-10-11T07:24:33.668Z,0.95
2022-10-11T07:29:35.084Z,0.73
2022-10-11T07:34:36.505Z,1.70
2022-10-11T07:39:37.970Z,0.50
2022-10-11T07:44:39.378Z,1.20
2022-10-11T07:49:40.860Z,0.70
2022-10-11T07:54:42.252Z,1.60
2022-10-11T07:59:47.866Z,0.57
2022-10-11T08:04:51.488Z,0.50
2022-10-11T08:09:53.029Z,0.43
2022-10-11T08:14:55.136Z,1.15
2022-10-11T08:19:58.054Z,0.57
2022-10-11T08:24:59.421Z,0.88
2022-10-11T08:30:00.883Z,0.80
2022-10-11T08:35:02.805Z,1.13
2022-10-11T08:40:05.947Z,0.50
2022-10-11T08:45:12.036Z,0.50
2022-10-11T08:50:19.922Z,0.60
2022-10-11T08:55:39.666Z,0.65
2022-10-11T09:00:42.106Z,1.35
2022-10-11T09:05:53.499Z,0.50
2022-10-11T09:11:16.539Z,1.33
2022-10-11T09:16:20.991Z,1.60
2022-10-11T09:21:41.002Z,0.60
2022-10-11T09:26:54.273Z,0.70
2022-10-11T09:31:57.042Z,1.70
2022-10-11T09:37:26.674Z,1.30
2022-10-11T09:42:28.028Z,0.50
2022-10-11T09:47:32.896Z,0.70
2022-10-11T09:52:34.296Z,1.13
2022-10-11T09:57:39.176Z,1.10
2022-10-11T10:02:47.449Z,0.55
2022-10-11T10:08:26.784Z,0.52
2022-10-11T10:13:46.446Z,0.80
2022-10-11T10:18:53.029Z,0.50
2022-10-11T10:23:56.584Z,0.50
2022-10-11T10:29:08.911Z,0.82
2022-10-11T10:34:15.914Z,0.63
2022-10-11T10:39:29.923Z,0.57
2022-10-11T10:44:31.564Z,0.80
2022-10-11T10:49:52.989Z,0.95
2022-10-11T10:55:14.036Z,0.60
2022-10-11T11:00:19.471Z,0.50
2022-10-11T11:05:34.109Z,0.85
2022-10-11T11:11:10.599Z,0.63
2022-10-11T11:16:30.868Z,1.05
2022-10-11T11:21:48.054Z,1.40
2022-10-11T11:27:06.186Z,0.68
2022-10-11T11:32:13.417Z,0.80
2022-10-11T11:37:33.608Z,1.95
2022-10-11T11:42:40.850Z,0.30
2022-10-11T11:47:47.227Z,0.60
2022-10-11T11:52:53.965Z,0.57
2022-10-11T11:58:03.270Z,0.50
2022-10-11T12:03:16.998Z,0.50
2022-10-11T12:08:28.080Z,0.40
2022-10-11T12:13:37.711Z,0.70
2022-10-11T12:18:51.751Z,0.30
2022-10-11T12:23:55.869Z,0.52
2022-10-11T12:29:03.772Z,0.30
2022-10-11T12:34:19.709Z,0.40
2022-10-11T12:39:21.021Z,0.95
2022-10-11T12:44:26.188Z,0.25
2022-10-11T12:49:31.119Z,0.85
2022-10-11T12:54:54.468Z,0.35
2022-10-11T13:00:17.764Z,0.30
2022-10-11T13:05:48.674Z,0.28
2022-10-11T13:10:53.389Z,0.30
2022-10-11T13:15:56.595Z,1.02
2022-10-11T13:20:58.089Z,0.30
2022-10-11T13:26:01.036Z,0.60
2022-10-11T13:31:03.948Z,0.38
2022-10-11T13:36:13.107Z,0.25
2022-10-11T13:41:15.323Z,0.50
2022-10-11T13:46:23.318Z,1.02
2022-10-11T13:51:39.152Z,0.90
2022-10-11T13:56:51.272Z,0.50
2022-10-11T14:01:59.461Z,0.30
2022-10-11T14:07:02.623Z,0.30
2022-10-11T14:12:25.808Z,0.40
2022-10-11T14:17:57.360Z,0.50
2022-10-11T14:22:58.832Z,0.30
2022-10-11T14:28:00.331Z,0.50
2022-10-11T14:33:02.763Z,0.70
2022-10-11T14:38:04.171Z,0.40
2022-10-11T14:43:05.631Z,0.50
2022-10-11T14:48:07.150Z,0.40
2022-10-11T14:53:10.227Z,0.50
2022-10-11T14:58:14.020Z,0.65
2022-10-11T15:03:15.501Z,0.40
2022-10-11T15:08:17.453Z,0.30
2022-10-11T15:13:19.505Z,0.35
2022-10-11T15:18:21.152Z,0.30
2022-10-11T15:23:22.566Z,0.40
2022-10-11T15:28:30.442Z,0.50
2022-10-11T15:33:32.209Z,1.40
2022-10-11T15:38:34.259Z,0.30
2022-10-11T15:43:35.712Z,0.25
2022-10-11T15:48:37.878Z,0.98
2022-10-11T15:53:39.341Z,0.50
2022-10-11T15:58:41.510Z,0.50
2022-10-11T16:03:43.339Z,1.08
2022-10-11T16:08:44.924Z,0.30
2022-10-11T16:13:46.587Z,0.60
2022-10-11T16:18:50.394Z,1.85
2022-10-11T16:23:51.776Z,0.30
2022-10-11T16:28:53.203Z,0.50
2022-10-11T16:33:54.728Z,0.40
2022-10-11T16:38:56.260Z,1.20
2022-10-11T16:43:57.661Z,0.93
2022-10-11T16:48:59.267Z,2.22
2022-10-11T16:54:01.024Z,2.10
2022-10-11T16:59:02.997Z,3.10
2022-10-11T17:04:04.906Z,2.08
2022-10-11T17:09:06.821Z,1.33
2022-10-11T17:14:08.311Z,1.67
2022-10-11T17:19:14.404Z,2.10
2022-10-11T17:24:15.743Z,1.33
2022-10-11T17:29:17.215Z,1.00
2022-10-11T17:34:18.634Z,1.05
2022-10-11T17:39:22.316Z,1.35
2022-10-11T17:44:23.724Z,3.25
2022-10-11T17:49:25.641Z,6.10
2022-10-11T17:54:27.254Z,4.65
2022-10-11T17:59:30.434Z,1.45
2022-10-11T18:04:31.820Z,2.80
2022-10-11T18:09:34.782Z,2.30
2022-10-11T18:14:36.463Z,1.48
2022-10-11T18:19:37.957Z,2.45
2022-10-11T18:24:39.359Z,1.83
2022-10-11T18:29:40.918Z,3.97
2022-10-11T18:34:42.435Z,8.55
2022-10-11T18:39:43.996Z,6.60
2022-10-11T18:44:45.488Z,4.78
2022-10-11T18:49:46.943Z,6.32
2022-10-11T18:54:48.347Z,5.70
2022-10-11T18:59:49.818Z,4.63
2022-10-11T19:04:52.652Z,3.72
2022-10-11T19:09:54.059Z,5.30
2022-10-11T19:14:55.489Z,6.97
2022-10-11T19:19:59.371Z,8.05
2022-10-11T19:25:00.728Z,9.35
2022-10-11T19:30:02.076Z,13.05
2022-10-11T19:35:03.843Z,6.80
2022-10-11T19:40:05.870Z,3.15
2022-10-11T19:45:07.875Z,2.17
2022-10-11T19:50:10.348Z,1.50
2022-10-11T19:55:11.771Z,2.08
2022-10-11T20:00:13.660Z,2.00
2022-10-11T20:05:15.183Z,1.42
2022-10-11T20:10:16.724Z,1.10
2022-10-11T20:15:18.186Z,2.03
2022-10-11T20:20:19.706Z,1.30
2022-10-11T20:25:21.070Z,1.90
2022-10-11T20:30:22.410Z,1.52
2022-10-11T20:35:23.804Z,1.65
2022-10-11T20:40:25.240Z,1.38
2022-10-11T20:45:26.918Z,2.67
2022-10-11T20:50:28.240Z,1.95
2022-10-11T20:55:29.834Z,2.55
2022-10-11T21:00:31.510Z,6.65
2022-10-11T21:05:33.227Z,5.57
2022-10-11T21:10:34.588Z,2.55
2022-10-11T21:15:35.915Z,1.42
2022-10-11T21:20:38.413Z,1.95
2022-10-11T21:25:40.332Z,2.72
2022-10-11T21:30:41.705Z,1.70
2022-10-11T21:35:43.110Z,1.77
2022-10-11T21:40:44.456Z,0.95
2022-10-11T21:45:46.038Z,1.25
2022-10-11T21:50:54.625Z,3.85
2022-10-11T21:55:57.678Z,3.10
2022-10-11T22:00:59.081Z,1.98
2022-10-11T22:06:04.385Z,1.88
2022-10-11T22:11:06.548Z,3.00
2022-10-11T22:16:10.462Z,3.75
2022-10-11T22:21:15.091Z,2.70
2022-10-11T22:26:19.963Z,1.63
2022-10-11T22:31:22.960Z,1.50
2022-10-11T22:36:24.541Z,1.17
2022-10-11T22:41:26.164Z,1.38
2022-10-11T22:46:28.081Z,3.15
2022-10-11T22:51:29.410Z,2.17
2022-10-11T22:56:30.789Z,1.55
2022-10-11T23:01:32.556Z,2.50
2022-10-11T23:06:34.040Z,1.70
2022-10-11T23:11:35.472Z,1.75
2022-10-11T23:16:36.876Z,2.03
2022-10-11T23:21:38.276Z,2.50
2022-10-11T23:26:39.660Z,2.58
2022-10-11T23:31:41.008Z,1.73
2022-10-11T23:36:42.401Z,2.33
2022-10-11T23:41:44.088Z,2.17
2022-10-11T23:46:46.188Z,2.47
2022-10-11T23:51:47.696Z,1.60
2022-10-11T23:56:49.074Z,1.17
